»·PEaware :: N61925 KBFL-KMHV

N61925 :: KBFL-KMHV

FLIGHT INFORMATION

Flight Status: Arrived
Operator: Privately registered:
United States
More flights under this callsign
Pilot: Layner W. (45619)
Aircraft: CESSNA 172 SKYHAWK
(C172)
More flights by this aircraft type
Origin: KBFL Meadows
United States
Destination: KMHV Mojave
United States
More flights between these airports :: More routes between these airports
Route:
File this flight plan on PilotEdge
Remarks:
Altitude:
(Current/Filed)
7,500ft
Speed:
(Current/Filed)
114kts
Departed: 19-Nov-23 06:54 PM
Arrived: 19-Nov-23 07:33 PM
Distance/Time
Traveled:
50nm/0:39
Distance/Time
To Go:
Arrived

Flight Plot

Page will automatically refresh every two minutes.


Map Options




Map Legend


Flown Route
Filed Route
Departure Airport
Arrival Airport
Navaid (VOR, NDB)
Fix

Horizontal Profiles

Position Reports

Time Latitude Longitude Heading Altitude Ground
Speed
19-Nov-23 18:37 35.429333 -119.046117 140 482ft 0kts
19-Nov-23 18:38 35.429333 -119.046117 140 482ft 0kts
19-Nov-23 18:39 35.429333 -119.046117 140 482ft 0kts
19-Nov-23 18:40 35.429333 -119.046117 140 482ft 0kts
19-Nov-23 18:41 35.429333 -119.046116 140 482ft 0kts
19-Nov-23 18:42 35.429333 -119.046116 140 482ft 0kts
19-Nov-23 18:43 35.429333 -119.046116 140 482ft 0kts
19-Nov-23 18:44 35.429333 -119.046116 140 482ft 0kts
19-Nov-23 18:45 35.429333 -119.046116 140 482ft 0kts
19-Nov-23 18:46 35.429333 -119.046116 140 482ft 0kts
19-Nov-23 18:47 35.429333 -119.046116 140 482ft 0kts
19-Nov-23 18:48 35.429333 -119.046116 140 482ft 0kts
19-Nov-23 18:49 35.429031 -119.045881 159 481ft 8kts
19-Nov-23 18:50 35.426571 -119.045067 140 473ft 15kts
19-Nov-23 18:51 35.425827 -119.044637 243 471ft 0kts
19-Nov-23 18:52 35.425566 -119.045546 272 473ft 10kts
19-Nov-23 18:53 35.435513 -119.059570 310 735ft 84kts
19-Nov-23 18:54 35.448720 -119.083322 308 1458ft 85kts
19-Nov-23 18:55 35.463070 -119.105315 313 2245ft 80kts
19-Nov-23 18:56 35.476568 -119.128045 326 2828ft 84kts
19-Nov-23 18:57 35.498657 -119.120016 78 2825ft 116kts
19-Nov-23 18:58 35.501179 -119.080111 82 2850ft 118kts
19-Nov-23 18:59 35.502570 -119.039239 84 2756ft 118kts
19-Nov-23 19:00 35.501018 -119.001438 93 3149ft 109kts
19-Nov-23 19:01 35.495265 -118.964390 105 3404ft 114kts
19-Nov-23 19:02 35.476652 -118.932254 124 3625ft 108kts
19-Nov-23 19:03 35.457424 -118.902635 131 3873ft 110kts
19-Nov-23 19:04 35.438596 -118.872008 127 4126ft 113kts
19-Nov-23 19:05 35.419118 -118.842462 128 4377ft 107kts
19-Nov-23 19:06 35.399053 -118.816663 134 4683ft 100kts
19-Nov-23 19:07 35.379914 -118.791676 120 5124ft 102kts
19-Nov-23 19:08 35.358038 -118.768926 127 5509ft 105kts
19-Nov-23 19:09 35.340300 -118.741931 122 5910ft 103kts
19-Nov-23 19:10 35.319817 -118.717291 109 6251ft 108kts
19-Nov-23 19:11 35.302408 -118.688453 102 6741ft 103kts
19-Nov-23 19:12 35.285610 -118.658368 117 7128ft 108kts
19-Nov-23 19:13 35.268755 -118.627650 118 7536ft 111kts
19-Nov-23 19:14 35.246514 -118.596380 121 7462ft 129kts
19-Nov-23 19:15 35.226902 -118.562798 98 7327ft 119kts
19-Nov-23 19:16 35.204313 -118.530786 113 7171ft 124kts
19-Nov-23 19:17 35.176511 -118.512233 175 6830ft 129kts
19-Nov-23 19:18 35.155793 -118.485135 73 6215ft 104kts
19-Nov-23 19:19 35.143784 -118.449231 110 5875ft 116kts
19-Nov-23 19:20 35.124164 -118.417303 113 5712ft 115kts
19-Nov-23 19:21 35.112325 -118.380876 101 5611ft 115kts
19-Nov-23 19:22 35.101733 -118.346668 92 6013ft 100kts
19-Nov-23 19:23 35.098353 -118.325346 87 6233ft 98kts
19-Nov-23 19:24 35.091401 -118.299934 95 6366ft 103kts
19-Nov-23 19:25 35.085869 -118.266227 103 5975ft 112kts
19-Nov-23 19:26 35.073263 -118.231850 107 5061ft 115kts
19-Nov-23 19:27 35.062424 -118.196516 104 4384ft 100kts
19-Nov-23 19:28 35.053462 -118.163107 105 3970ft 105kts
19-Nov-23 19:29 35.055432 -118.127052 94 3964ft 102kts
19-Nov-23 19:30 35.062454 -118.116192 233 3688ft 97kts
19-Nov-23 19:31 35.059134 -118.142544 278 2776ft 63kts
19-Nov-23 19:32 35.059102 -118.149979 261 2752ft 4kts
19-Nov-23 19:33 35.058078 -118.149456 208 2752ft 8kts
19-Nov-23 19:34 35.057330 -118.152606 215 2758ft 9kts
19-Nov-23 19:35 35.056462 -118.153085 251 2759ft 0kts

Navigation Log

Ident Type
Flight plan parsing failed, navigation log unavailable